sensor_id;sensor_type;location;lat;lon;timestamp;P1;durP1;ratioP1;P2;durP2;ratioP2
76617;SDS011;65509;42.816;74.648;2023-09-07T00:00:24;23.13;;;3.80;;
76617;SDS011;65509;42.816;74.648;2023-09-07T00:02:49;15.43;;;3.35;;
76617;SDS011;65509;42.816;74.648;2023-09-07T00:05:15;14.35;;;3.25;;
76617;SDS011;65509;42.816;74.648;2023-09-07T00:07:40;15.48;;;3.20;;
76617;SDS011;65509;42.816;74.648;2023-09-07T00:10:06;16.02;;;3.33;;
76617;SDS011;65509;42.816;74.648;2023-09-07T00:12:31;20.52;;;3.40;;
76617;SDS011;65509;42.816;74.648;2023-09-07T00:14:57;13.60;;;3.03;;
76617;SDS011;65509;42.816;74.648;2023-09-07T00:17:22;22.23;;;3.75;;
76617;SDS011;65509;42.816;74.648;2023-09-07T00:19:48;19.25;;;3.38;;
76617;SDS011;65509;42.816;74.648;2023-09-07T00:22:14;25.23;;;3.95;;
76617;SDS011;65509;42.816;74.648;2023-09-07T00:24:40;17.98;;;3.72;;
76617;SDS011;65509;42.816;74.648;2023-09-07T00:27:05;19.77;;;3.88;;
76617;SDS011;65509;42.816;74.648;2023-09-07T00:29:33;21.05;;;4.07;;
76617;SDS011;65509;42.816;74.648;2023-09-07T00:31:58;19.40;;;3.83;;
76617;SDS011;65509;42.816;74.648;2023-09-07T00:34:23;21.60;;;3.90;;
76617;SDS011;65509;42.816;74.648;2023-09-07T00:36:49;17.08;;;3.80;;
76617;SDS011;65509;42.816;74.648;2023-09-07T00:39:14;13.98;;;3.17;;
76617;SDS011;65509;42.816;74.648;2023-09-07T00:41:40;14.70;;;3.60;;
76617;SDS011;65509;42.816;74.648;2023-09-07T00:44:05;14.98;;;3.60;;
76617;SDS011;65509;42.816;74.648;2023-09-07T00:46:31;22.67;;;4.22;;
76617;SDS011;65509;42.816;74.648;2023-09-07T00:48:56;11.30;;;3.15;;
76617;SDS011;65509;42.816;74.648;2023-09-07T00:51:22;21.42;;;3.58;;
76617;SDS011;65509;42.816;74.648;2023-09-07T00:53:48;14.38;;;3.00;;
76617;SDS011;65509;42.816;74.648;2023-09-07T00:56:13;30.63;;;4.30;;
76617;SDS011;65509;42.816;74.648;2023-09-07T00:58:39;29.63;;;4.53;;
76617;SDS011;65509;42.816;74.648;2023-09-07T01:01:05;12.18;;;3.05;;
76617;SDS011;65509;42.816;74.648;2023-09-07T01:03:30;25.13;;;4.47;;
76617;SDS011;65509;42.816;74.648;2023-09-07T01:05:56;23.13;;;4.10;;
76617;SDS011;65509;42.816;74.648;2023-09-07T01:08:24;16.38;;;3.60;;
76617;SDS011;65509;42.816;74.648;2023-09-07T01:10:51;15.88;;;3.80;;
76617;SDS011;65509;42.816;74.648;2023-09-07T01:13:17;18.10;;;3.67;;
76617;SDS011;65509;42.816;74.648;2023-09-07T01:15:43;13.25;;;3.13;;
76617;SDS011;65509;42.816;74.648;2023-09-07T01:18:09;20.45;;;4.03;;
76617;SDS011;65509;42.816;74.648;2023-09-07T01:20:34;31.95;;;4.43;;
76617;SDS011;65509;42.816;74.648;2023-09-07T01:23:01;15.27;;;3.58;;
76617;SDS011;65509;42.816;74.648;2023-09-07T01:25:27;17.98;;;3.70;;
76617;SDS011;65509;42.816;74.648;2023-09-07T01:27:53;22.63;;;3.63;;
76617;SDS011;65509;42.816;74.648;2023-09-07T01:30:19;15.02;;;3.63;;
76617;SDS011;65509;42.816;74.648;2023-09-07T01:32:45;21.55;;;3.78;;
76617;SDS011;65509;42.816;74.648;2023-09-07T01:35:11;17.92;;;4.07;;
76617;SDS011;65509;42.816;74.648;2023-09-07T01:37:39;22.88;;;3.83;;
76617;SDS011;65509;42.816;74.648;2023-09-07T01:40:05;24.58;;;4.35;;
76617;SDS011;65509;42.816;74.648;2023-09-07T01:42:32;25.00;;;4.55;;
76617;SDS011;65509;42.816;74.648;2023-09-07T01:44:58;35.15;;;4.50;;
76617;SDS011;65509;42.816;74.648;2023-09-07T01:47:23;33.13;;;4.75;;
76617;SDS011;65509;42.816;74.648;2023-09-07T01:49:49;21.30;;;3.88;;
76617;SDS011;65509;42.816;74.648;2023-09-07T01:52:14;25.60;;;3.72;;
76617;SDS011;65509;42.816;74.648;2023-09-07T01:54:40;41.30;;;4.95;;
76617;SDS011;65509;42.816;74.648;2023-09-07T01:57:05;35.45;;;4.70;;
76617;SDS011;65509;42.816;74.648;2023-09-07T01:59:31;45.78;;;5.15;;
76617;SDS011;65509;42.816;74.648;2023-09-07T02:01:56;36.00;;;4.80;;
76617;SDS011;65509;42.816;74.648;2023-09-07T02:04:22;40.42;;;5.30;;
76617;SDS011;65509;42.816;74.648;2023-09-07T02:06:47;51.58;;;6.72;;
76617;SDS011;65509;42.816;74.648;2023-09-07T02:09:12;33.92;;;4.93;;
76617;SDS011;65509;42.816;74.648;2023-09-07T02:11:38;27.52;;;4.60;;
76617;SDS011;65509;42.816;74.648;2023-09-07T02:14:05;22.25;;;3.97;;
76617;SDS011;65509;42.816;74.648;2023-09-07T02:16:30;35.05;;;4.55;;
76617;SDS011;65509;42.816;74.648;2023-09-07T02:19:00;56.03;;;5.53;;
76617;SDS011;65509;42.816;74.648;2023-09-07T02:21:26;26.20;;;4.45;;
76617;SDS011;65509;42.816;74.648;2023-09-07T02:23:52;50.78;;;6.15;;
76617;SDS011;65509;42.816;74.648;2023-09-07T02:26:17;53.30;;;5.50;;
76617;SDS011;65509;42.816;74.648;2023-09-07T02:28:43;33.30;;;5.57;;
76617;SDS011;65509;42.816;74.648;2023-09-07T02:31:08;28.95;;;4.35;;
76617;SDS011;65509;42.816;74.648;2023-09-07T02:33:34;41.42;;;5.82;;
76617;SDS011;65509;42.816;74.648;2023-09-07T02:36:00;26.67;;;4.68;;
76617;SDS011;65509;42.816;74.648;2023-09-07T02:38:26;23.38;;;4.75;;
76617;SDS011;65509;42.816;74.648;2023-09-07T02:40:51;32.75;;;7.00;;
76617;SDS011;65509;42.816;74.648;2023-09-07T02:43:19;35.58;;;5.30;;
76617;SDS011;65509;42.816;74.648;2023-09-07T02:45:45;31.40;;;5.72;;
76617;SDS011;65509;42.816;74.648;2023-09-07T02:48:10;22.92;;;4.78;;
76617;SDS011;65509;42.816;74.648;2023-09-07T02:50:35;27.88;;;5.20;;
76617;SDS011;65509;42.816;74.648;2023-09-07T02:53:01;24.45;;;4.25;;
76617;SDS011;65509;42.816;74.648;2023-09-07T02:55:28;19.30;;;3.85;;
76617;SDS011;65509;42.816;74.648;2023-09-07T02:57:53;23.08;;;4.05;;
76617;SDS011;65509;42.816;74.648;2023-09-07T03:00:23;16.30;;;4.47;;
76617;SDS011;65509;42.816;74.648;2023-09-07T03:02:49;27.58;;;4.22;;
76617;SDS011;65509;42.816;74.648;2023-09-07T03:05:15;19.52;;;4.88;;
76617;SDS011;65509;42.816;74.648;2023-09-07T03:07:40;30.00;;;5.75;;
76617;SDS011;65509;42.816;74.648;2023-09-07T03:10:06;16.77;;;4.32;;
76617;SDS011;65509;42.816;74.648;2023-09-07T03:12:31;19.00;;;4.55;;
76617;SDS011;65509;42.816;74.648;2023-09-07T03:14:57;23.15;;;4.07;;
76617;SDS011;65509;42.816;74.648;2023-09-07T03:17:25;17.85;;;3.47;;
76617;SDS011;65509;42.816;74.648;2023-09-07T03:19:51;20.48;;;4.18;;
76617;SDS011;65509;42.816;74.648;2023-09-07T03:22:17;15.10;;;3.45;;
76617;SDS011;65509;42.816;74.648;2023-09-07T03:24:42;29.33;;;4.93;;
76617;SDS011;65509;42.816;74.648;2023-09-07T03:27:08;14.63;;;3.58;;
76617;SDS011;65509;42.816;74.648;2023-09-07T03:29:33;22.60;;;4.45;;
76617;SDS011;65509;42.816;74.648;2023-09-07T03:32:00;20.98;;;3.88;;
76617;SDS011;65509;42.816;74.648;2023-09-07T03:34:26;19.55;;;3.75;;
76617;SDS011;65509;42.816;74.648;2023-09-07T03:36:51;15.05;;;3.15;;
76617;SDS011;65509;42.816;74.648;2023-09-07T03:39:17;22.95;;;4.20;;
76617;SDS011;65509;42.816;74.648;2023-09-07T03:41:44;34.53;;;5.03;;
76617;SDS011;65509;42.816;74.648;2023-09-07T03:44:09;24.85;;;4.20;;
76617;SDS011;65509;42.816;74.648;2023-09-07T03:46:34;58.38;;;7.10;;
76617;SDS011;65509;42.816;74.648;2023-09-07T03:49:00;27.08;;;4.82;;
76617;SDS011;65509;42.816;74.648;2023-09-07T03:51:25;23.30;;;4.20;;
76617;SDS011;65509;42.816;74.648;2023-09-07T03:53:51;27.92;;;4.22;;
76617;SDS011;65509;42.816;74.648;2023-09-07T03:56:16;22.60;;;3.85;;
76617;SDS011;65509;42.816;74.648;2023-09-07T03:58:42;31.52;;;4.43;;
76617;SDS011;65509;42.816;74.648;2023-09-07T04:01:07;20.17;;;3.90;;
76617;SDS011;65509;42.816;74.648;2023-09-07T04:03:32;23.08;;;3.75;;
76617;SDS011;65509;42.816;74.648;2023-09-07T04:06:01;22.88;;;4.53;;
76617;SDS011;65509;42.816;74.648;2023-09-07T04:08:26;18.00;;;4.07;;
76617;SDS011;65509;42.816;74.648;2023-09-07T04:10:52;24.60;;;4.60;;
76617;SDS011;65509;42.816;74.648;2023-09-07T04:13:17;24.10;;;4.10;;
76617;SDS011;65509;42.816;74.648;2023-09-07T04:15:46;25.42;;;5.13;;
76617;SDS011;65509;42.816;74.648;2023-09-07T04:18:12;24.98;;;4.72;;
76617;SDS011;65509;42.816;74.648;2023-09-07T04:20:41;26.63;;;4.75;;
76617;SDS011;65509;42.816;74.648;2023-09-07T04:23:07;25.27;;;4.50;;
76617;SDS011;65509;42.816;74.648;2023-09-07T04:25:32;23.92;;;4.40;;
76617;SDS011;65509;42.816;74.648;2023-09-07T04:27:58;19.73;;;3.97;;
76617;SDS011;65509;42.816;74.648;2023-09-07T04:30:23;21.08;;;4.22;;
76617;SDS011;65509;42.816;74.648;2023-09-07T04:32:51;26.95;;;5.15;;
76617;SDS011;65509;42.816;74.648;2023-09-07T04:35:17;23.70;;;4.50;;
76617;SDS011;65509;42.816;74.648;2023-09-07T04:37:43;34.22;;;4.70;;
76617;SDS011;65509;42.816;74.648;2023-09-07T04:40:08;26.55;;;4.97;;
76617;SDS011;65509;42.816;74.648;2023-09-07T04:42:34;31.95;;;5.20;;
76617;SDS011;65509;42.816;74.648;2023-09-07T04:44:59;28.20;;;4.85;;
76617;SDS011;65509;42.816;74.648;2023-09-07T04:47:25;18.10;;;3.80;;
76617;SDS011;65509;42.816;74.648;2023-09-07T04:49:50;27.20;;;4.65;;
76617;SDS011;65509;42.816;74.648;2023-09-07T04:52:16;24.20;;;4.47;;
76617;SDS011;65509;42.816;74.648;2023-09-07T04:54:41;40.13;;;5.90;;
76617;SDS011;65509;42.816;74.648;2023-09-07T04:57:08;31.88;;;5.53;;
76617;SDS011;65509;42.816;74.648;2023-09-07T04:59:33;34.33;;;5.13;;
76617;SDS011;65509;42.816;74.648;2023-09-07T05:01:59;27.55;;;4.03;;
76617;SDS011;65509;42.816;74.648;2023-09-07T05:04:25;17.58;;;3.95;;
76617;SDS011;65509;42.816;74.648;2023-09-07T05:06:51;28.27;;;4.68;;
76617;SDS011;65509;42.816;74.648;2023-09-07T05:09:16;19.35;;;3.63;;
76617;SDS011;65509;42.816;74.648;2023-09-07T05:11:42;31.80;;;4.90;;
76617;SDS011;65509;42.816;74.648;2023-09-07T05:14:07;23.05;;;4.50;;
76617;SDS011;65509;42.816;74.648;2023-09-07T05:16:33;21.35;;;3.63;;
76617;SDS011;65509;42.816;74.648;2023-09-07T05:18:58;20.45;;;3.60;;
76617;SDS011;65509;42.816;74.648;2023-09-07T05:21:24;18.75;;;3.78;;
76617;SDS011;65509;42.816;74.648;2023-09-07T05:23:52;25.95;;;4.18;;
76617;SDS011;65509;42.816;74.648;2023-09-07T05:26:21;20.73;;;4.00;;
76617;SDS011;65509;42.816;74.648;2023-09-07T05:28:49;40.08;;;6.85;;
76617;SDS011;65509;42.816;74.648;2023-09-07T05:31:14;27.00;;;5.32;;
76617;SDS011;65509;42.816;74.648;2023-09-07T05:33:40;30.15;;;5.05;;
76617;SDS011;65509;42.816;74.648;2023-09-07T05:36:05;32.45;;;5.45;;
76617;SDS011;65509;42.816;74.648;2023-09-07T05:38:31;36.25;;;6.22;;
76617;SDS011;65509;42.816;74.648;2023-09-07T05:40:56;52.33;;;7.22;;
76617;SDS011;65509;42.816;74.648;2023-09-07T05:43:22;63.30;;;8.13;;
76617;SDS011;65509;42.816;74.648;2023-09-07T05:45:47;60.22;;;6.50;;
76617;SDS011;65509;42.816;74.648;2023-09-07T05:48:15;29.73;;;5.38;;
76617;SDS011;65509;42.816;74.648;2023-09-07T05:50:44;36.58;;;6.28;;
76617;SDS011;65509;42.816;74.648;2023-09-07T05:53:09;42.13;;;6.20;;
76617;SDS011;65509;42.816;74.648;2023-09-07T05:55:35;39.17;;;5.75;;
76617;SDS011;65509;42.816;74.648;2023-09-07T06:00:28;33.22;;;5.40;;
76617;SDS011;65509;42.816;74.648;2023-09-07T06:02:56;39.33;;;5.53;;
76617;SDS011;65509;42.816;74.648;2023-09-07T06:05:21;39.65;;;5.85;;
76617;SDS011;65509;42.816;74.648;2023-09-07T06:07:47;36.83;;;5.20;;
76617;SDS011;65509;42.816;74.648;2023-09-07T06:10:13;26.52;;;5.10;;
76617;SDS011;65509;42.816;74.648;2023-09-07T06:12:38;47.05;;;6.43;;
76617;SDS011;65509;42.816;74.648;2023-09-07T06:15:07;27.73;;;4.78;;
76617;SDS011;65509;42.816;74.648;2023-09-07T06:17:33;21.50;;;4.97;;
76617;SDS011;65509;42.816;74.648;2023-09-07T06:19:58;40.20;;;5.95;;
76617;SDS011;65509;42.816;74.648;2023-09-07T06:22:23;46.55;;;6.53;;
76617;SDS011;65509;42.816;74.648;2023-09-07T06:24:49;53.17;;;6.88;;
76617;SDS011;65509;42.816;74.648;2023-09-07T06:27:18;61.85;;;8.02;;
76617;SDS011;65509;42.816;74.648;2023-09-07T06:29:44;58.25;;;7.80;;
76617;SDS011;65509;42.816;74.648;2023-09-07T06:32:09;62.53;;;8.10;;
76617;SDS011;65509;42.816;74.648;2023-09-07T06:34:35;34.97;;;5.72;;
76617;SDS011;65509;42.816;74.648;2023-09-07T06:37:00;35.92;;;5.88;;
76617;SDS011;65509;42.816;74.648;2023-09-07T06:39:26;37.08;;;5.90;;
76617;SDS011;65509;42.816;74.648;2023-09-07T06:41:51;50.42;;;7.13;;
76617;SDS011;65509;42.816;74.648;2023-09-07T06:44:16;36.17;;;5.82;;
76617;SDS011;65509;42.816;74.648;2023-09-07T06:46:42;51.35;;;7.65;;
76617;SDS011;65509;42.816;74.648;2023-09-07T06:49:07;35.40;;;6.30;;
76617;SDS011;65509;42.816;74.648;2023-09-07T06:51:33;43.88;;;6.45;;
76617;SDS011;65509;42.816;74.648;2023-09-07T06:53:59;73.50;;;9.50;;
76617;SDS011;65509;42.816;74.648;2023-09-07T06:56:24;71.50;;;9.25;;
76617;SDS011;65509;42.816;74.648;2023-09-07T06:58:49;84.40;;;10.23;;
76617;SDS011;65509;42.816;74.648;2023-09-07T07:01:15;63.03;;;9.13;;
76617;SDS011;65509;42.816;74.648;2023-09-07T07:03:41;86.65;;;11.07;;
76617;SDS011;65509;42.816;74.648;2023-09-07T07:06:06;73.63;;;11.13;;
76617;SDS011;65509;42.816;74.648;2023-09-07T07:08:31;82.95;;;10.20;;
76617;SDS011;65509;42.816;74.648;2023-09-07T07:10:57;75.25;;;10.13;;
76617;SDS011;65509;42.816;74.648;2023-09-07T07:13:22;82.55;;;10.65;;
76617;SDS011;65509;42.816;74.648;2023-09-07T07:15:48;86.45;;;11.15;;
76617;SDS011;65509;42.816;74.648;2023-09-07T07:18:13;63.80;;;10.55;;
76617;SDS011;65509;42.816;74.648;2023-09-07T07:20:39;53.03;;;8.70;;
76617;SDS011;65509;42.816;74.648;2023-09-07T07:23:05;50.22;;;7.95;;
76617;SDS011;65509;42.816;74.648;2023-09-07T07:25:33;38.03;;;7.55;;
76617;SDS011;65509;42.816;74.648;2023-09-07T07:27:59;60.83;;;9.77;;
76617;SDS011;65509;42.816;74.648;2023-09-07T07:30:28;43.35;;;7.43;;
76617;SDS011;65509;42.816;74.648;2023-09-07T07:32:56;39.97;;;7.28;;
76617;SDS011;65509;42.816;74.648;2023-09-07T07:35:22;37.50;;;6.50;;
76617;SDS011;65509;42.816;74.648;2023-09-07T07:37:48;42.42;;;7.30;;
76617;SDS011;65509;42.816;74.648;2023-09-07T07:40:13;39.97;;;7.32;;
76617;SDS011;65509;42.816;74.648;2023-09-07T07:42:39;29.77;;;5.88;;
76617;SDS011;65509;42.816;74.648;2023-09-07T07:45:04;23.20;;;4.60;;
76617;SDS011;65509;42.816;74.648;2023-09-07T07:47:30;26.85;;;5.07;;
76617;SDS011;65509;42.816;74.648;2023-09-07T07:49:55;43.60;;;6.57;;
76617;SDS011;65509;42.816;74.648;2023-09-07T07:52:21;31.15;;;5.60;;
76617;SDS011;65509;42.816;74.648;2023-09-07T07:54:47;32.55;;;5.38;;
76617;SDS011;65509;42.816;74.648;2023-09-07T07:57:12;36.70;;;6.22;;
76617;SDS011;65509;42.816;74.648;2023-09-07T07:59:38;32.75;;;5.70;;
76617;SDS011;65509;42.816;74.648;2023-09-07T08:02:06;23.92;;;4.90;;
76617;SDS011;65509;42.816;74.648;2023-09-07T08:04:32;20.52;;;4.43;;
76617;SDS011;65509;42.816;74.648;2023-09-07T08:06:58;27.15;;;5.50;;
76617;SDS011;65509;42.816;74.648;2023-09-07T08:09:37;27.38;;;5.07;;
76617;SDS011;65509;42.816;74.648;2023-09-07T08:12:03;43.22;;;7.10;;
76617;SDS011;65509;42.816;74.648;2023-09-07T08:14:29;30.38;;;5.43;;
76617;SDS011;65509;42.816;74.648;2023-09-07T08:16:54;43.05;;;6.20;;
76617;SDS011;65509;42.816;74.648;2023-09-07T08:19:20;26.92;;;5.13;;
76617;SDS011;65509;42.816;74.648;2023-09-07T08:21:46;25.20;;;4.65;;
76617;SDS011;65509;42.816;74.648;2023-09-07T08:24:12;24.35;;;4.63;;
76617;SDS011;65509;42.816;74.648;2023-09-07T08:26:38;27.75;;;4.95;;
76617;SDS011;65509;42.816;74.648;2023-09-07T08:29:03;47.67;;;6.57;;
76617;SDS011;65509;42.816;74.648;2023-09-07T08:31:33;29.58;;;5.53;;
76617;SDS011;65509;42.816;74.648;2023-09-07T08:34:03;35.45;;;6.20;;
76617;SDS011;65509;42.816;74.648;2023-09-07T08:36:29;33.42;;;6.18;;
76617;SDS011;65509;42.816;74.648;2023-09-07T08:38:57;35.92;;;6.53;;
76617;SDS011;65509;42.816;74.648;2023-09-07T08:41:24;32.28;;;5.25;;
76617;SDS011;65509;42.816;74.648;2023-09-07T08:43:52;38.38;;;6.55;;
76617;SDS011;65509;42.816;74.648;2023-09-07T08:46:18;32.63;;;5.85;;
76617;SDS011;65509;42.816;74.648;2023-09-07T08:48:46;36.75;;;6.00;;
76617;SDS011;65509;42.816;74.648;2023-09-07T08:51:12;34.22;;;6.03;;
76617;SDS011;65509;42.816;74.648;2023-09-07T08:53:40;26.33;;;4.85;;
76617;SDS011;65509;42.816;74.648;2023-09-07T08:56:06;21.35;;;4.45;;
76617;SDS011;65509;42.816;74.648;2023-09-07T08:58:35;25.65;;;4.65;;
76617;SDS011;65509;42.816;74.648;2023-09-07T09:01:01;48.13;;;7.05;;
76617;SDS011;65509;42.816;74.648;2023-09-07T09:03:29;47.35;;;7.85;;
76617;SDS011;65509;42.816;74.648;2023-09-07T09:05:56;47.40;;;6.47;;
76617;SDS011;65509;42.816;74.648;2023-09-07T09:08:21;32.40;;;5.40;;
76617;SDS011;65509;42.816;74.648;2023-09-07T09:10:58;34.45;;;5.22;;
76617;SDS011;65509;42.816;74.648;2023-09-07T09:13:29;36.08;;;5.63;;
76617;SDS011;65509;42.816;74.648;2023-09-07T09:16:00;46.42;;;6.72;;
76617;SDS011;65509;42.816;74.648;2023-09-07T09:18:26;31.02;;;4.28;;
76617;SDS011;65509;42.816;74.648;2023-09-07T09:20:52;36.92;;;5.28;;
76617;SDS011;65509;42.816;74.648;2023-09-07T09:23:18;41.40;;;5.80;;
76617;SDS011;65509;42.816;74.648;2023-09-07T09:25:43;39.20;;;5.47;;
76617;SDS011;65509;42.816;74.648;2023-09-07T09:28:15;33.85;;;4.78;;
76617;SDS011;65509;42.816;74.648;2023-09-07T09:30:40;31.73;;;5.25;;
76617;SDS011;65509;42.816;74.648;2023-09-07T09:33:09;48.72;;;6.53;;
76617;SDS011;65509;42.816;74.648;2023-09-07T09:35:34;27.67;;;4.65;;
76617;SDS011;65509;42.816;74.648;2023-09-07T09:38:00;53.70;;;6.47;;
76617;SDS011;65509;42.816;74.648;2023-09-07T09:40:38;23.92;;;4.18;;
76617;SDS011;65509;42.816;74.648;2023-09-07T09:43:04;38.20;;;5.80;;
76617;SDS011;65509;42.816;74.648;2023-09-07T09:45:30;38.85;;;5.60;;
76617;SDS011;65509;42.816;74.648;2023-09-07T09:47:56;32.33;;;4.88;;
76617;SDS011;65509;42.816;74.648;2023-09-07T09:50:23;39.17;;;5.88;;
76617;SDS011;65509;42.816;74.648;2023-09-07T09:52:49;29.85;;;4.88;;
76617;SDS011;65509;42.816;74.648;2023-09-07T09:55:16;31.17;;;4.18;;
76617;SDS011;65509;42.816;74.648;2023-09-07T09:57:45;24.15;;;4.20;;
76617;SDS011;65509;42.816;74.648;2023-09-07T10:00:11;27.10;;;4.20;;
76617;SDS011;65509;42.816;74.648;2023-09-07T10:02:53;33.33;;;4.90;;
76617;SDS011;65509;42.816;74.648;2023-09-07T10:05:20;20.58;;;3.78;;
76617;SDS011;65509;42.816;74.648;2023-09-07T10:07:49;38.53;;;5.28;;
76617;SDS011;65509;42.816;74.648;2023-09-07T10:10:18;23.17;;;3.88;;
76617;SDS011;65509;42.816;74.648;2023-09-07T10:12:44;31.63;;;4.88;;
76617;SDS011;65509;42.816;74.648;2023-09-07T10:18:04;41.55;;;5.72;;
76617;SDS011;65509;42.816;74.648;2023-09-07T10:20:52;30.25;;;4.82;;
76617;SDS011;65509;42.816;74.648;2023-09-07T10:23:15;33.47;;;5.05;;
76617;SDS011;65509;42.816;74.648;2023-09-07T10:25:41;42.00;;;5.60;;
76617;SDS011;65509;42.816;74.648;2023-09-07T10:28:27;35.58;;;6.57;;
76617;SDS011;65509;42.816;74.648;2023-09-07T10:33:44;26.15;;;4.85;;
76617;SDS011;65509;42.816;74.648;2023-09-07T10:36:20;30.80;;;4.05;;
76617;SDS011;65509;42.816;74.648;2023-09-07T10:38:45;28.52;;;6.78;;
76617;SDS011;65509;42.816;74.648;2023-09-07T10:41:43;25.42;;;7.50;;
76617;SDS011;65509;42.816;74.648;2023-09-07T10:44:12;40.58;;;5.55;;
76617;SDS011;65509;42.816;74.648;2023-09-07T10:46:39;23.55;;;5.85;;
76617;SDS011;65509;42.816;74.648;2023-09-07T10:49:06;35.78;;;5.43;;
76617;SDS011;65509;42.816;74.648;2023-09-07T10:51:32;58.92;;;7.53;;
76617;SDS011;65509;42.816;74.648;2023-09-07T10:53:57;45.15;;;5.82;;
76617;SDS011;65509;42.816;74.648;2023-09-07T10:56:26;46.95;;;6.50;;
76617;SDS011;65509;42.816;74.648;2023-09-07T10:58:53;44.67;;;7.93;;
76617;SDS011;65509;42.816;74.648;2023-09-07T11:01:19;40.10;;;5.90;;
76617;SDS011;65509;42.816;74.648;2023-09-07T11:03:45;48.67;;;6.38;;
76617;SDS011;65509;42.816;74.648;2023-09-07T11:06:11;34.00;;;4.93;;
76617;SDS011;65509;42.816;74.648;2023-09-07T11:08:39;27.58;;;4.45;;
76617;SDS011;65509;42.816;74.648;2023-09-07T11:11:07;41.47;;;6.35;;
76617;SDS011;65509;42.816;74.648;2023-09-07T11:13:33;34.67;;;5.22;;
76617;SDS011;65509;42.816;74.648;2023-09-07T11:15:58;47.42;;;5.82;;
76617;SDS011;65509;42.816;74.648;2023-09-07T11:18:24;47.00;;;6.07;;
76617;SDS011;65509;42.816;74.648;2023-09-07T11:20:50;54.38;;;6.75;;
76617;SDS011;65509;42.816;74.648;2023-09-07T11:23:16;30.25;;;5.63;;
76617;SDS011;65509;42.816;74.648;2023-09-07T11:25:42;35.65;;;5.47;;
76617;SDS011;65509;42.816;74.648;2023-09-07T11:28:08;35.55;;;4.80;;
76617;SDS011;65509;42.816;74.648;2023-09-07T11:30:34;32.72;;;4.68;;
76617;SDS011;65509;42.816;74.648;2023-09-07T11:33:00;45.92;;;7.38;;
76617;SDS011;65509;42.816;74.648;2023-09-07T11:35:26;44.03;;;6.45;;
76617;SDS011;65509;42.816;74.648;2023-09-07T11:37:52;44.15;;;6.13;;
76617;SDS011;65509;42.816;74.648;2023-09-07T11:40:17;34.08;;;4.30;;
76617;SDS011;65509;42.816;74.648;2023-09-07T11:42:43;35.97;;;5.07;;
76617;SDS011;65509;42.816;74.648;2023-09-07T11:45:08;37.80;;;5.07;;
76617;SDS011;65509;42.816;74.648;2023-09-07T11:47:34;29.50;;;4.28;;
76617;SDS011;65509;42.816;74.648;2023-09-07T11:50:00;27.95;;;4.13;;
76617;SDS011;65509;42.816;74.648;2023-09-07T11:52:26;24.20;;;4.22;;
76617;SDS011;65509;42.816;74.648;2023-09-07T11:54:51;37.33;;;4.78;;
76617;SDS011;65509;42.816;74.648;2023-09-07T11:57:17;37.35;;;4.97;;
76617;SDS011;65509;42.816;74.648;2023-09-07T11:59:42;51.33;;;7.53;;
76617;SDS011;65509;42.816;74.648;2023-09-07T12:02:08;40.58;;;6.05;;
76617;SDS011;65509;42.816;74.648;2023-09-07T12:04:37;24.27;;;4.53;;
76617;SDS011;65509;42.816;74.648;2023-09-07T12:07:03;32.22;;;5.18;;
76617;SDS011;65509;42.816;74.648;2023-09-07T12:09:29;30.90;;;5.40;;
76617;SDS011;65509;42.816;74.648;2023-09-07T12:11:54;23.88;;;4.50;;
76617;SDS011;65509;42.816;74.648;2023-09-07T12:14:20;28.85;;;4.28;;
76617;SDS011;65509;42.816;74.648;2023-09-07T12:16:45;31.30;;;4.53;;
76617;SDS011;65509;42.816;74.648;2023-09-07T12:19:10;36.10;;;5.40;;
76617;SDS011;65509;42.816;74.648;2023-09-07T12:21:36;38.22;;;5.55;;
76617;SDS011;65509;42.816;74.648;2023-09-07T12:24:01;30.63;;;4.40;;
76617;SDS011;65509;42.816;74.648;2023-09-07T12:26:27;32.05;;;4.50;;
76617;SDS011;65509;42.816;74.648;2023-09-07T12:28:52;31.35;;;4.25;;
76617;SDS011;65509;42.816;74.648;2023-09-07T12:31:18;41.45;;;5.80;;
76617;SDS011;65509;42.816;74.648;2023-09-07T12:33:44;27.58;;;4.57;;
76617;SDS011;65509;42.816;74.648;2023-09-07T12:36:09;41.95;;;5.55;;
76617;SDS011;65509;42.816;74.648;2023-09-07T12:38:36;34.70;;;4.75;;
76617;SDS011;65509;42.816;74.648;2023-09-07T12:41:02;41.67;;;5.50;;
76617;SDS011;65509;42.816;74.648;2023-09-07T12:43:27;39.22;;;5.45;;
76617;SDS011;65509;42.816;74.648;2023-09-07T12:45:53;32.05;;;4.45;;
76617;SDS011;65509;42.816;74.648;2023-09-07T12:48:19;26.90;;;3.85;;
76617;SDS011;65509;42.816;74.648;2023-09-07T12:50:46;25.10;;;4.18;;
76617;SDS011;65509;42.816;74.648;2023-09-07T12:53:15;43.33;;;8.93;;
76617;SDS011;65509;42.816;74.648;2023-09-07T12:55:41;39.03;;;9.07;;
76617;SDS011;65509;42.816;74.648;2023-09-07T12:58:06;43.33;;;7.07;;
76617;SDS011;65509;42.816;74.648;2023-09-07T13:00:35;32.60;;;5.22;;
76617;SDS011;65509;42.816;74.648;2023-09-07T13:03:00;30.90;;;4.45;;
76617;SDS011;65509;42.816;74.648;2023-09-07T13:05:25;34.65;;;5.43;;
76617;SDS011;65509;42.816;74.648;2023-09-07T13:07:51;34.75;;;5.00;;
76617;SDS011;65509;42.816;74.648;2023-09-07T13:10:17;34.60;;;4.95;;
76617;SDS011;65509;42.816;74.648;2023-09-07T13:12:43;28.08;;;4.30;;
76617;SDS011;65509;42.816;74.648;2023-09-07T13:15:09;28.85;;;4.50;;
76617;SDS011;65509;42.816;74.648;2023-09-07T13:17:35;24.10;;;4.05;;
76617;SDS011;65509;42.816;74.648;2023-09-07T13:20:00;30.10;;;4.32;;
76617;SDS011;65509;42.816;74.648;2023-09-07T13:22:26;33.88;;;4.93;;
76617;SDS011;65509;42.816;74.648;2023-09-07T13:24:52;24.42;;;4.38;;
76617;SDS011;65509;42.816;74.648;2023-09-07T13:27:17;22.45;;;4.82;;
76617;SDS011;65509;42.816;74.648;2023-09-07T13:29:43;47.22;;;6.95;;
76617;SDS011;65509;42.816;74.648;2023-09-07T13:32:08;33.35;;;6.57;;
76617;SDS011;65509;42.816;74.648;2023-09-07T13:34:34;29.58;;;5.88;;
76617;SDS011;65509;42.816;74.648;2023-09-07T13:36:59;26.77;;;6.00;;
76617;SDS011;65509;42.816;74.648;2023-09-07T13:39:25;18.55;;;5.20;;
76617;SDS011;65509;42.816;74.648;2023-09-07T13:41:50;19.30;;;5.28;;
76617;SDS011;65509;42.816;74.648;2023-09-07T13:44:19;32.97;;;6.32;;
76617;SDS011;65509;42.816;74.648;2023-09-07T13:46:47;24.42;;;6.32;;
76617;SDS011;65509;42.816;74.648;2023-09-07T13:49:12;51.25;;;12.98;;
76617;SDS011;65509;42.816;74.648;2023-09-07T13:51:39;64.95;;;22.05;;
76617;SDS011;65509;42.816;74.648;2023-09-07T13:54:08;49.53;;;18.55;;
76617;SDS011;65509;42.816;74.648;2023-09-07T13:56:34;46.15;;;17.88;;
76617;SDS011;65509;42.816;74.648;2023-09-07T13:59:01;46.10;;;17.10;;
76617;SDS011;65509;42.816;74.648;2023-09-07T14:01:29;51.10;;;18.42;;
76617;SDS011;65509;42.816;74.648;2023-09-07T14:03:55;77.43;;;26.52;;
76617;SDS011;65509;42.816;74.648;2023-09-07T14:06:24;68.70;;;27.38;;
76617;SDS011;65509;42.816;74.648;2023-09-07T14:08:49;86.18;;;28.17;;
76617;SDS011;65509;42.816;74.648;2023-09-07T14:11:16;66.43;;;23.10;;
76617;SDS011;65509;42.816;74.648;2023-09-07T14:13:42;47.63;;;18.95;;
76617;SDS011;65509;42.816;74.648;2023-09-07T14:16:07;50.28;;;16.95;;
76617;SDS011;65509;42.816;74.648;2023-09-07T14:18:35;46.38;;;15.75;;
76617;SDS011;65509;42.816;74.648;2023-09-07T14:21:01;47.50;;;13.93;;
76617;SDS011;65509;42.816;74.648;2023-09-07T14:23:27;36.33;;;13.10;;